BEE28Y EGBB-EGAC
Flight info
| Callsign | BEE28Y |
|---|---|
| Flight time | 0h 46m |
| Altitude | 18000 |
| Route | LUVUM DCT NANTI Y53 WAL M146 ROBOP M147 MAGEE |
| Aircraft | DH8D/M-SDE2E3FGRY/H |
Departure
| Time | 2026-04-29 15:55 |
|---|---|
| Airport | Birmingham Airport (EGBB) |
Arrival
| Time | 2026-04-29 16:41 |
|---|---|
| Airport | George Best Belfast City Airport (EGAC) |
| Time | Latitude | Longitude | Altitude | Speed | Heading |
|---|---|---|---|---|---|
| 2026-04-29 15:30 | 52.45128 | -1.73488 | 335 ft | 0 kts | 146° |
| 2026-04-29 15:44 | 52.45136 | -1.73498 | 334 ft | 2 kts | 142° |
| 2026-04-29 15:44 | 52.45148 | -1.73513 | 334 ft | 2 kts | 143° |
| 2026-04-29 15:44 | 52.45160 | -1.73528 | 334 ft | 2 kts | 143° |
| 2026-04-29 15:44 | 52.45169 | -1.73540 | 334 ft | 0 kts | 149° |
| 2026-04-29 15:45 | 52.45175 | -1.73542 | 334 ft | 0 kts | 201° |
| 2026-04-29 15:45 | 52.45179 | -1.73536 | 334 ft | 1 kts | 237° |
| 2026-04-29 15:45 | 52.45181 | -1.73532 | 334 ft | 0 kts | 236° |
| 2026-04-29 15:47 | 52.45179 | -1.73537 | 334 ft | 2 kts | 236° |
| 2026-04-29 15:47 | 52.45163 | -1.73577 | 333 ft | 0 kts | 236° |
| 2026-04-29 15:47 | 52.45161 | -1.73580 | 333 ft | 0 kts | 236° |
| 2026-04-29 15:48 | 52.45155 | -1.73595 | 333 ft | 4 kts | 236° |
| 2026-04-29 15:48 | 52.45133 | -1.73652 | 332 ft | 7 kts | 238° |
| 2026-04-29 15:48 | 52.45108 | -1.73709 | 332 ft | 7 kts | 240° |
| 2026-04-29 15:48 | 52.45107 | -1.73782 | 331 ft | 8 kts | 302° |
| 2026-04-29 15:49 | 52.45153 | -1.73839 | 331 ft | 9 kts | 328° |
| 2026-04-29 15:49 | 52.45215 | -1.73902 | 329 ft | 11 kts | 327° |
| 2026-04-29 15:49 | 52.45279 | -1.73978 | 328 ft | 11 kts | 325° |
| 2026-04-29 15:49 | 52.45319 | -1.74068 | 327 ft | 9 kts | 297° |
| 2026-04-29 15:50 | 52.45350 | -1.74166 | 327 ft | 10 kts | 296° |
| 2026-04-29 15:50 | 52.45385 | -1.74278 | 326 ft | 11 kts | 297° |
| 2026-04-29 15:50 | 52.45424 | -1.74406 | 326 ft | 13 kts | 298° |
| 2026-04-29 15:50 | 52.45465 | -1.74537 | 326 ft | 12 kts | 297° |
| 2026-04-29 15:51 | 52.45526 | -1.74639 | 326 ft | 12 kts | 323° |
| 2026-04-29 15:51 | 52.45596 | -1.74716 | 325 ft | 11 kts | 330° |
| 2026-04-29 15:51 | 52.45660 | -1.74782 | 324 ft | 10 kts | 326° |
| 2026-04-29 15:51 | 52.45732 | -1.74861 | 323 ft | 17 kts | 326° |
| 2026-04-29 15:52 | 52.45838 | -1.74978 | 320 ft | 18 kts | 327° |
| 2026-04-29 15:52 | 52.45944 | -1.75100 | 318 ft | 18 kts | 324° |
| 2026-04-29 15:52 | 52.46052 | -1.75221 | 315 ft | 19 kts | 326° |
| 2026-04-29 15:52 | 52.46165 | -1.75345 | 312 ft | 19 kts | 326° |
| 2026-04-29 15:53 | 52.46209 | -1.75457 | 310 ft | 11 kts | 256° |
| 2026-04-29 15:53 | 52.46165 | -1.75581 | 310 ft | 12 kts | 234° |
| 2026-04-29 15:53 | 52.46137 | -1.75616 | 310 ft | 4 kts | 195° |
| 2026-04-29 15:53 | 52.46111 | -1.75607 | 310 ft | 3 kts | 153° |
| 2026-04-29 15:54 | 52.46090 | -1.75585 | 311 ft | 8 kts | 143° |
| 2026-04-29 15:54 | 52.45941 | -1.75414 | 315 ft | 59 kts | 144° |
| 2026-04-29 15:54 | 52.45356 | -1.74766 | 328 ft | 136 kts | 142° |
| 2026-04-29 15:54 | 52.44459 | -1.73899 | 652 ft | 157 kts | 148° |
| 2026-04-29 15:55 | 52.43507 | -1.73200 | 1433 ft | 151 kts | 143° |
| 2026-04-29 15:55 | 52.42553 | -1.72268 | 1805 ft | 165 kts | 136° |
| 2026-04-29 15:55 | 52.41629 | -1.71165 | 2329 ft | 170 kts | 133° |
| 2026-04-29 15:55 | 52.40709 | -1.69988 | 2984 ft | 163 kts | 126° |
| 2026-04-29 15:56 | 52.40344 | -1.68375 | 3542 ft | 155 kts | 86° |
| 2026-04-29 15:56 | 52.40514 | -1.66624 | 4056 ft | 161 kts | 82° |
| 2026-04-29 15:56 | 52.40723 | -1.64825 | 4661 ft | 163 kts | 82° |
| 2026-04-29 15:56 | 52.40956 | -1.63003 | 5233 ft | 167 kts | 79° |
| 2026-04-29 15:57 | 52.41632 | -1.61413 | 5705 ft | 187 kts | 38° |
| 2026-04-29 15:57 | 52.42905 | -1.60656 | 6110 ft | 208 kts | 25° |
| 2026-04-29 15:57 | 52.44387 | -1.59976 | 6256 ft | 232 kts | 22° |
| 2026-04-29 15:57 | 52.46006 | -1.59492 | 6717 ft | 246 kts | 9° |
| 2026-04-29 15:58 | 52.47737 | -1.59612 | 7279 ft | 251 kts | 2° |
| 2026-04-29 15:58 | 52.49469 | -1.59808 | 7831 ft | 254 kts | 2° |
| 2026-04-29 15:58 | 52.51241 | -1.60112 | 8409 ft | 260 kts | 352° |
| 2026-04-29 15:58 | 52.52960 | -1.61155 | 8937 ft | 268 kts | 340° |
| 2026-04-29 15:59 | 52.54638 | -1.62398 | 9482 ft | 268 kts | 340° |
| 2026-04-29 15:59 | 52.56351 | -1.63661 | 10019 ft | 271 kts | 340° |
| 2026-04-29 15:59 | 52.58067 | -1.64920 | 10542 ft | 273 kts | 340° |
| 2026-04-29 15:59 | 52.59811 | -1.66194 | 11042 ft | 276 kts | 340° |
| 2026-04-29 16:00 | 52.61559 | -1.67465 | 11541 ft | 278 kts | 340° |
| 2026-04-29 16:00 | 52.63354 | -1.68769 | 12012 ft | 282 kts | 341° |
| 2026-04-29 16:00 | 52.65139 | -1.70063 | 12504 ft | 284 kts | 341° |
| 2026-04-29 16:00 | 52.66944 | -1.71370 | 12929 ft | 287 kts | 341° |
| 2026-04-29 16:01 | 52.68796 | -1.72710 | 13377 ft | 291 kts | 341° |
| 2026-04-29 16:01 | 52.70625 | -1.74053 | 13884 ft | 291 kts | 339° |
| 2026-04-29 16:01 | 52.72284 | -1.76076 | 14204 ft | 303 kts | 316° |
| 2026-04-29 16:01 | 52.73655 | -1.78686 | 14625 ft | 305 kts | 313° |
| 2026-04-29 16:02 | 52.75033 | -1.81351 | 15041 ft | 307 kts | 313° |
| 2026-04-29 16:02 | 52.76417 | -1.84032 | 15524 ft | 306 kts | 313° |
| 2026-04-29 16:02 | 52.77808 | -1.86720 | 15816 ft | 312 kts | 313° |
| 2026-04-29 16:02 | 52.79217 | -1.89438 | 16234 ft | 312 kts | 313° |
| 2026-04-29 16:03 | 52.80627 | -1.92158 | 16584 ft | 314 kts | 313° |
| 2026-04-29 16:03 | 52.82030 | -1.94864 | 16986 ft | 314 kts | 313° |
| 2026-04-29 16:03 | 52.83468 | -1.97637 | 17319 ft | 316 kts | 313° |
| 2026-04-29 16:03 | 52.84894 | -2.00389 | 17683 ft | 318 kts | 313° |
| 2026-04-29 16:04 | 52.86326 | -2.03154 | 17984 ft | 321 kts | 314° |
| 2026-04-29 16:04 | 52.87793 | -2.05987 | 18228 ft | 326 kts | 314° |
| 2026-04-29 16:04 | 52.89281 | -2.08860 | 18297 ft | 336 kts | 314° |
| 2026-04-29 16:04 | 52.90812 | -2.11818 | 18315 ft | 340 kts | 313° |
| 2026-04-29 16:05 | 52.92358 | -2.14819 | 18315 ft | 342 kts | 313° |
| 2026-04-29 16:05 | 52.93899 | -2.17812 | 18318 ft | 343 kts | 313° |
| 2026-04-29 16:05 | 52.95448 | -2.20823 | 18314 ft | 344 kts | 313° |
| 2026-04-29 16:05 | 52.96998 | -2.23837 | 18313 ft | 346 kts | 313° |
| 2026-04-29 16:06 | 52.98545 | -2.26849 | 18315 ft | 346 kts | 313° |
| 2026-04-29 16:06 | 53.00116 | -2.29912 | 18317 ft | 347 kts | 313° |
| 2026-04-29 16:06 | 53.01673 | -2.32953 | 18315 ft | 348 kts | 313° |
| 2026-04-29 16:06 | 53.03238 | -2.36008 | 18315 ft | 348 kts | 313° |
| 2026-04-29 16:07 | 53.04800 | -2.39065 | 18310 ft | 349 kts | 313° |
| 2026-04-29 16:07 | 53.06360 | -2.42120 | 18313 ft | 349 kts | 313° |
| 2026-04-29 16:07 | 53.07932 | -2.45202 | 18317 ft | 349 kts | 313° |
| 2026-04-29 16:07 | 53.09495 | -2.48270 | 18307 ft | 350 kts | 313° |
| 2026-04-29 16:08 | 53.11062 | -2.51349 | 18293 ft | 349 kts | 313° |
| 2026-04-29 16:08 | 53.12631 | -2.54436 | 18322 ft | 349 kts | 313° |
| 2026-04-29 16:08 | 53.14199 | -2.57537 | 18323 ft | 349 kts | 312° |
| 2026-04-29 16:08 | 53.15675 | -2.60699 | 18323 ft | 350 kts | 309° |
| 2026-04-29 16:09 | 53.17146 | -2.63976 | 18328 ft | 351 kts | 309° |
| 2026-04-29 16:09 | 53.18607 | -2.67240 | 18320 ft | 352 kts | 308° |
| 2026-04-29 16:09 | 53.20065 | -2.70500 | 18319 ft | 352 kts | 308° |
| 2026-04-29 16:09 | 53.21526 | -2.73765 | 18326 ft | 352 kts | 308° |
| 2026-04-29 16:10 | 53.22990 | -2.77035 | 18328 ft | 353 kts | 308° |
| 2026-04-29 16:10 | 53.24458 | -2.80314 | 18328 ft | 353 kts | 309° |
| 2026-04-29 16:10 | 53.25921 | -2.83583 | 18325 ft | 353 kts | 309° |
| 2026-04-29 16:10 | 53.27384 | -2.86853 | 18322 ft | 353 kts | 308° |
| 2026-04-29 16:11 | 53.28851 | -2.90136 | 18327 ft | 353 kts | 308° |
| 2026-04-29 16:11 | 53.30321 | -2.93427 | 18325 ft | 353 kts | 309° |
| 2026-04-29 16:11 | 53.31779 | -2.96698 | 18326 ft | 354 kts | 309° |
| 2026-04-29 16:11 | 53.33253 | -3.00004 | 18330 ft | 354 kts | 309° |
| 2026-04-29 16:12 | 53.34713 | -3.03283 | 18332 ft | 354 kts | 308° |
| 2026-04-29 16:12 | 53.35694 | -3.05490 | 18326 ft | 354 kts | 308° |
| 2026-04-29 16:12 | 53.37638 | -3.09868 | 18329 ft | 354 kts | 309° |
| 2026-04-29 16:12 | 53.39130 | -3.13180 | 18325 ft | 354 kts | 311° |
| 2026-04-29 16:13 | 53.40796 | -3.16215 | 18329 ft | 353 kts | 317° |
| 2026-04-29 16:13 | 53.42505 | -3.19106 | 18332 ft | 353 kts | 318° |
| 2026-04-29 16:13 | 53.44233 | -3.22029 | 18337 ft | 353 kts | 317° |
| 2026-04-29 16:13 | 53.45961 | -3.24958 | 18324 ft | 353 kts | 318° |
| 2026-04-29 16:14 | 53.47667 | -3.27861 | 18325 ft | 353 kts | 318° |
| 2026-04-29 16:14 | 53.49397 | -3.30807 | 18327 ft | 353 kts | 317° |
| 2026-04-29 16:14 | 53.51127 | -3.33761 | 18321 ft | 353 kts | 317° |
| 2026-04-29 16:14 | 53.52833 | -3.36680 | 18304 ft | 354 kts | 317° |
| 2026-04-29 16:15 | 53.54554 | -3.39630 | 18308 ft | 355 kts | 317° |
| 2026-04-29 16:15 | 53.56268 | -3.42572 | 18375 ft | 353 kts | 318° |
| 2026-04-29 16:15 | 53.57970 | -3.45609 | 18337 ft | 356 kts | 313° |
| 2026-04-29 16:15 | 53.59443 | -3.48921 | 18320 ft | 358 kts | 308° |
| 2026-04-29 16:16 | 53.60863 | -3.52314 | 18343 ft | 357 kts | 307° |
| 2026-04-29 16:16 | 53.62296 | -3.55742 | 18340 ft | 359 kts | 308° |
| 2026-04-29 16:16 | 53.63732 | -3.59179 | 18331 ft | 359 kts | 307° |
| 2026-04-29 16:16 | 53.65171 | -3.62619 | 18329 ft | 358 kts | 307° |
| 2026-04-29 16:17 | 53.66592 | -3.66024 | 18334 ft | 358 kts | 307° |
| 2026-04-29 16:17 | 53.68030 | -3.69471 | 18328 ft | 358 kts | 307° |
| 2026-04-29 16:17 | 53.69456 | -3.72890 | 18323 ft | 358 kts | 307° |
| 2026-04-29 16:17 | 53.70894 | -3.76342 | 18328 ft | 359 kts | 307° |
| 2026-04-29 16:18 | 53.72312 | -3.79749 | 18326 ft | 360 kts | 306° |
| 2026-04-29 16:18 | 53.73756 | -3.83222 | 18320 ft | 360 kts | 306° |
| 2026-04-29 16:18 | 53.75200 | -3.86699 | 18321 ft | 361 kts | 307° |
| 2026-04-29 16:18 | 53.76640 | -3.90171 | 18326 ft | 361 kts | 306° |
| 2026-04-29 16:19 | 53.78070 | -3.93624 | 18320 ft | 361 kts | 307° |
| 2026-04-29 16:19 | 53.79496 | -3.97071 | 18329 ft | 361 kts | 307° |
| 2026-04-29 16:19 | 53.80939 | -4.00564 | 18325 ft | 362 kts | 307° |
| 2026-04-29 16:19 | 53.82368 | -4.04028 | 18324 ft | 362 kts | 307° |
| 2026-04-29 16:20 | 53.83809 | -4.07525 | 18328 ft | 362 kts | 307° |
| 2026-04-29 16:20 | 53.85256 | -4.11042 | 18330 ft | 362 kts | 307° |
| 2026-04-29 16:20 | 53.86682 | -4.14514 | 18328 ft | 362 kts | 307° |
| 2026-04-29 16:20 | 53.88122 | -4.18022 | 18316 ft | 363 kts | 307° |
| 2026-04-29 16:21 | 53.89562 | -4.21540 | 18320 ft | 363 kts | 306° |
| 2026-04-29 16:21 | 53.90989 | -4.25030 | 18333 ft | 363 kts | 307° |
| 2026-04-29 16:21 | 53.92413 | -4.28518 | 18326 ft | 363 kts | 306° |
| 2026-04-29 16:21 | 53.93847 | -4.32038 | 18320 ft | 363 kts | 306° |
| 2026-04-29 16:22 | 53.95278 | -4.35553 | 18293 ft | 362 kts | 306° |
| 2026-04-29 16:22 | 53.96709 | -4.39069 | 18323 ft | 362 kts | 306° |
| 2026-04-29 16:22 | 53.98134 | -4.42578 | 18326 ft | 362 kts | 307° |
| 2026-04-29 16:22 | 53.99572 | -4.46121 | 18355 ft | 363 kts | 306° |
| 2026-04-29 16:23 | 54.00987 | -4.49614 | 18310 ft | 364 kts | 306° |
| 2026-04-29 16:23 | 54.02515 | -4.53061 | 18321 ft | 362 kts | 313° |
| 2026-04-29 16:23 | 54.04194 | -4.56208 | 18349 ft | 361 kts | 316° |
| 2026-04-29 16:23 | 54.05895 | -4.59342 | 18338 ft | 361 kts | 315° |
| 2026-04-29 16:24 | 54.07578 | -4.62444 | 18334 ft | 361 kts | 316° |
| 2026-04-29 16:24 | 54.09312 | -4.65567 | 18332 ft | 361 kts | 316° |
| 2026-04-29 16:24 | 54.11044 | -4.68639 | 18329 ft | 360 kts | 316° |
| 2026-04-29 16:24 | 54.12782 | -4.71757 | 18341 ft | 360 kts | 315° |
| 2026-04-29 16:25 | 54.14441 | -4.74903 | 18338 ft | 361 kts | 314° |
| 2026-04-29 16:25 | 54.16125 | -4.78123 | 18346 ft | 360 kts | 314° |
| 2026-04-29 16:25 | 54.17788 | -4.81288 | 18355 ft | 360 kts | 314° |
| 2026-04-29 16:25 | 54.19468 | -4.84481 | 18038 ft | 360 kts | 314° |
| 2026-04-29 16:26 | 54.21117 | -4.87617 | 17648 ft | 355 kts | 314° |
| 2026-04-29 16:26 | 54.22759 | -4.90736 | 17219 ft | 352 kts | 314° |
| 2026-04-29 16:26 | 54.24390 | -4.93830 | 16781 ft | 346 kts | 314° |
| 2026-04-29 16:26 | 54.25958 | -4.96809 | 16372 ft | 338 kts | 314° |
| 2026-04-29 16:27 | 54.27511 | -4.99758 | 15951 ft | 330 kts | 314° |
| 2026-04-29 16:27 | 54.29048 | -5.02675 | 15570 ft | 327 kts | 314° |
| 2026-04-29 16:27 | 54.30561 | -5.05531 | 15175 ft | 330 kts | 314° |
| 2026-04-29 16:27 | 54.32109 | -5.08459 | 14754 ft | 331 kts | 314° |
| 2026-04-29 16:28 | 54.33637 | -5.11354 | 14372 ft | 331 kts | 314° |
| 2026-04-29 16:28 | 54.35185 | -5.14293 | 13942 ft | 330 kts | 314° |
| 2026-04-29 16:28 | 54.36688 | -5.17153 | 13550 ft | 327 kts | 314° |
| 2026-04-29 16:28 | 54.38209 | -5.20052 | 13144 ft | 321 kts | 314° |
| 2026-04-29 16:29 | 54.39675 | -5.22849 | 12761 ft | 314 kts | 314° |
| 2026-04-29 16:29 | 54.41114 | -5.25597 | 12401 ft | 309 kts | 314° |
| 2026-04-29 16:29 | 54.42543 | -5.28327 | 12015 ft | 304 kts | 314° |
| 2026-04-29 16:29 | 54.43933 | -5.30988 | 11634 ft | 303 kts | 313° |
| 2026-04-29 16:30 | 54.45047 | -5.34035 | 11221 ft | 301 kts | 287° |
| 2026-04-29 16:30 | 54.45319 | -5.37536 | 10895 ft | 294 kts | 270° |
| 2026-04-29 16:30 | 54.45380 | -5.41000 | 10544 ft | 292 kts | 269° |
| 2026-04-29 16:30 | 54.45428 | -5.44483 | 10179 ft | 291 kts | 269° |
| 2026-04-29 16:31 | 54.45474 | -5.47896 | 9825 ft | 289 kts | 269° |
| 2026-04-29 16:31 | 54.45518 | -5.51344 | 9473 ft | 283 kts | 269° |
| 2026-04-29 16:31 | 54.45560 | -5.54675 | 9133 ft | 277 kts | 269° |
| 2026-04-29 16:31 | 54.45602 | -5.57930 | 8794 ft | 271 kts | 269° |
| 2026-04-29 16:32 | 54.45643 | -5.61108 | 8470 ft | 266 kts | 269° |
| 2026-04-29 16:32 | 54.45682 | -5.64257 | 8141 ft | 260 kts | 269° |
| 2026-04-29 16:32 | 54.45720 | -5.67304 | 7825 ft | 251 kts | 268° |
| 2026-04-29 16:32 | 54.45756 | -5.70236 | 7526 ft | 240 kts | 268° |
| 2026-04-29 16:33 | 54.45821 | -5.75654 | 6957 ft | 214 kts | 268° |
| 2026-04-29 16:33 | 54.45851 | -5.78134 | 6722 ft | 210 kts | 268° |
| 2026-04-29 16:33 | 54.45884 | -5.80669 | 6475 ft | 211 kts | 268° |
| 2026-04-29 16:34 | 54.45914 | -5.83189 | 6175 ft | 215 kts | 268° |
| 2026-04-29 16:34 | 54.45939 | -5.85750 | 5720 ft | 213 kts | 268° |
| 2026-04-29 16:34 | 54.45964 | -5.88258 | 5377 ft | 204 kts | 268° |
| 2026-04-29 16:34 | 54.45990 | -5.90651 | 5108 ft | 201 kts | 268° |
| 2026-04-29 16:35 | 54.46016 | -5.93016 | 4844 ft | 197 kts | 268° |
| 2026-04-29 16:35 | 54.46041 | -5.95380 | 4603 ft | 197 kts | 268° |
| 2026-04-29 16:35 | 54.46067 | -5.97732 | 4366 ft | 200 kts | 268° |
| 2026-04-29 16:35 | 54.46119 | -6.00121 | 4065 ft | 204 kts | 276° |
| 2026-04-29 16:36 | 54.46737 | -6.02232 | 3495 ft | 199 kts | 327° |
| 2026-04-29 16:36 | 54.47921 | -6.02826 | 3113 ft | 168 kts | 24° |
| 2026-04-29 16:36 | 54.48845 | -6.01831 | 2944 ft | 152 kts | 47° |
| 2026-04-29 16:36 | 54.49772 | -6.00888 | 2747 ft | 161 kts | 33° |
| 2026-04-29 16:37 | 54.50799 | -6.00091 | 2583 ft | 159 kts | 35° |
| 2026-04-29 16:37 | 54.51746 | -5.99214 | 2303 ft | 150 kts | 40° |
| 2026-04-29 16:37 | 54.52586 | -5.98291 | 2122 ft | 142 kts | 43° |
| 2026-04-29 16:37 | 54.53118 | -5.97656 | 1988 ft | 136 kts | 43° |
| 2026-04-29 16:38 | 54.54119 | -5.96440 | 1750 ft | 133 kts | 45° |
| 2026-04-29 16:38 | 54.54877 | -5.95502 | 1573 ft | 136 kts | 44° |
| 2026-04-29 16:38 | 54.55627 | -5.94614 | 1392 ft | 123 kts | 41° |
| 2026-04-29 16:38 | 54.56312 | -5.93819 | 1202 ft | 120 kts | 44° |
| 2026-04-29 16:39 | 54.56997 | -5.92957 | 1086 ft | 127 kts | 43° |
| 2026-04-29 16:39 | 54.57761 | -5.92013 | 916 ft | 140 kts | 40° |
| 2026-04-29 16:39 | 54.58563 | -5.91113 | 646 ft | 134 kts | 38° |
| 2026-04-29 16:39 | 54.59318 | -5.90235 | 478 ft | 128 kts | 38° |
| 2026-04-29 16:40 | 54.60035 | -5.89372 | 322 ft | 122 kts | 38° |
| 2026-04-29 16:40 | 54.60727 | -5.88548 | 180 ft | 119 kts | 36° |
| 2026-04-29 16:40 | 54.61391 | -5.87747 | 30 ft | 109 kts | 36° |
| 2026-04-29 16:40 | 54.61855 | -5.87191 | 22 ft | 56 kts | 35° |
| 2026-04-29 16:41 | 54.61960 | -5.87059 | 22 ft | 5 kts | 285° |
| 2026-04-29 16:41 | 54.61930 | -5.87115 | 22 ft | 6 kts | 214° |
| 2026-04-29 16:41 | 54.61887 | -5.87161 | 22 ft | 7 kts | 205° |
| 2026-04-29 16:41 | 54.61836 | -5.87162 | 22 ft | 7 kts | 144° |
| 2026-04-29 16:42 | 54.61800 | -5.87093 | 22 ft | 7 kts | 127° |
| 2026-04-29 16:42 | 54.61769 | -5.87017 | 22 ft | 7 kts | 125° |
| 2026-04-29 16:42 | 54.61724 | -5.86992 | 22 ft | 7 kts | 207° |
| 2026-04-29 16:42 | 54.61683 | -5.87025 | 22 ft | 4 kts | 159° |
| 2026-04-29 16:43 | 54.61660 | -5.86979 | 22 ft | 5 kts | 123° |
| 2026-04-29 16:43 | 54.61656 | -5.86969 | 22 ft | 0 kts | 122° |